createdAt,value
2018-07-23T00:00:33.317Z,99.90
2018-07-23T00:03:02.661Z,99.90
2018-07-23T00:05:33.075Z,99.90
2018-07-23T00:08:02.289Z,99.90
2018-07-23T00:13:00.825Z,99.90
2018-07-23T00:15:30.692Z,99.90
2018-07-23T00:17:59.886Z,99.90
2018-07-23T00:20:29.467Z,99.90
2018-07-23T00:22:58.649Z,99.90
2018-07-23T00:25:27.911Z,99.90
2018-07-23T00:27:58.232Z,99.90
2018-07-23T00:30:28.079Z,99.90
2018-07-23T00:32:57.815Z,99.90
2018-07-23T00:35:27.746Z,99.90
2018-07-23T00:37:57.048Z,99.90
2018-07-23T00:40:26.401Z,99.90
2018-07-23T00:42:55.623Z,99.90
2018-07-23T00:45:24.875Z,99.90
2018-07-23T00:47:56.249Z,99.90
2018-07-23T00:50:25.653Z,99.90
2018-07-23T00:52:56.510Z,99.90
2018-07-23T00:55:25.701Z,99.90
2018-07-23T00:57:54.922Z,99.90
2018-07-23T01:00:24.176Z,99.40
2018-07-23T01:02:53.399Z,99.90
2018-07-23T01:05:22.898Z,99.90
2018-07-23T01:07:52.089Z,99.90
2018-07-23T01:10:22.686Z,99.90
2018-07-23T01:12:51.891Z,99.90
2018-07-23T01:15:21.169Z,99.90
2018-07-23T01:17:51.923Z,99.90
2018-07-23T01:20:22.148Z,99.90
2018-07-23T01:22:51.343Z,99.90
2018-07-23T01:25:20.712Z,99.90
2018-07-23T01:27:49.889Z,99.90
2018-07-23T01:30:19.231Z,99.90
2018-07-23T01:32:48.445Z,99.90
2018-07-23T01:35:17.650Z,99.90
2018-07-23T01:37:47.003Z,99.80
2018-07-23T01:40:19.972Z,99.90
2018-07-23T01:42:51.153Z,99.90
2018-07-23T01:45:20.374Z,99.90
2018-07-23T01:47:50.244Z,99.90
2018-07-23T01:50:21.943Z,99.90
2018-07-23T01:52:51.146Z,99.90
2018-07-23T01:55:20.443Z,99.90
2018-07-23T01:57:50.925Z,99.90
2018-07-23T02:00:20.211Z,99.90
2018-07-23T02:02:49.730Z,99.90
2018-07-23T02:05:18.955Z,99.90
2018-07-23T02:07:48.474Z,99.90
2018-07-23T02:10:21.798Z,99.90
2018-07-23T02:12:51.286Z,99.90
2018-07-23T02:15:20.481Z,99.90
2018-07-23T02:20:19.558Z,99.90
2018-07-23T02:22:48.756Z,99.90
2018-07-23T02:25:17.975Z,99.90
2018-07-23T02:27:47.774Z,99.90
2018-07-23T02:30:17.048Z,99.90
2018-07-23T02:32:46.283Z,99.90
2018-07-23T02:35:15.447Z,99.90
2018-07-23T02:37:44.995Z,99.90
2018-07-23T02:40:17.830Z,99.90
2018-07-23T02:42:47.031Z,99.90
2018-07-23T02:45:16.456Z,99.90
2018-07-23T02:47:46.093Z,99.90
2018-07-23T02:50:15.447Z,99.90
2018-07-23T02:52:44.660Z,99.90
2018-07-23T02:55:15.032Z,99.90
2018-07-23T02:57:44.280Z,99.90
2018-07-23T03:00:17.047Z,99.90
2018-07-23T03:02:47.009Z,99.90
2018-07-23T03:05:16.418Z,99.90
2018-07-23T03:07:45.607Z,99.90
2018-07-23T03:10:15.003Z,99.90
2018-07-23T03:12:44.233Z,99.90
2018-07-23T03:15:13.540Z,99.90
2018-07-23T03:17:42.767Z,99.90
2018-07-23T03:20:12.233Z,99.90
2018-07-23T03:22:41.438Z,99.90
2018-07-23T03:25:11.179Z,99.90
2018-07-23T03:27:40.405Z,99.90
2018-07-23T03:30:09.752Z,99.90
2018-07-23T03:32:39.321Z,99.90
2018-07-23T03:35:09.828Z,99.90
2018-07-23T03:37:40.242Z,99.90
2018-07-23T03:40:11.120Z,99.90
2018-07-23T03:42:40.322Z,99.90
2018-07-23T03:45:10.196Z,99.60
2018-07-23T03:47:39.446Z,97.90
2018-07-23T03:50:08.764Z,98.50
2018-07-23T03:52:38.056Z,99.90
2018-07-23T03:55:08.157Z,99.90
2018-07-23T03:57:37.375Z,99.90
2018-07-23T04:00:06.777Z,99.90
2018-07-23T04:02:36.014Z,99.90
2018-07-23T04:05:06.121Z,99.90
2018-07-23T04:07:36.202Z,99.90
2018-07-23T04:10:06.656Z,99.90
2018-07-23T04:12:35.973Z,99.90
2018-07-23T04:15:05.998Z,99.90
2018-07-23T04:17:36.175Z,99.90
2018-07-23T04:20:05.554Z,99.90
2018-07-23T04:22:34.867Z,99.90
2018-07-23T04:25:04.138Z,99.90
2018-07-23T04:27:33.438Z,99.90
2018-07-23T04:30:03.566Z,99.90
2018-07-23T04:32:32.785Z,99.90
2018-07-23T04:35:02.063Z,99.90
2018-07-23T04:37:31.261Z,98.30
2018-07-23T04:40:00.614Z,98.20
2018-07-23T04:42:29.860Z,98.60
2018-07-23T04:44:59.095Z,99.50
2018-07-23T04:47:28.338Z,98.60
2018-07-23T04:49:57.995Z,98.00
2018-07-23T04:52:27.195Z,98.30
2018-07-23T04:54:56.382Z,98.70
2018-07-23T04:57:25.566Z,99.10
2018-07-23T04:59:54.828Z,99.00
2018-07-23T05:02:24.061Z,98.90
2018-07-23T05:04:53.896Z,98.60
2018-07-23T05:07:23.283Z,99.90
2018-07-23T05:09:52.617Z,99.90
2018-07-23T05:12:22.467Z,99.40
2018-07-23T05:14:51.699Z,99.70
2018-07-23T05:17:21.244Z,98.50
2018-07-23T05:19:51.220Z,99.00
2018-07-23T05:22:20.489Z,99.20
2018-07-23T05:24:50.229Z,97.50
2018-07-23T05:27:20.375Z,96.50
2018-07-23T05:32:20.729Z,98.80
2018-07-23T05:34:49.992Z,99.70
2018-07-23T05:37:19.235Z,98.60
2018-07-23T05:39:48.462Z,98.00
2018-07-23T05:42:18.480Z,98.70
2018-07-23T05:44:47.699Z,98.10
2018-07-23T05:47:19.119Z,97.70
2018-07-23T05:49:48.597Z,96.00
2018-07-23T05:52:18.031Z,93.30
2018-07-23T05:54:48.099Z,95.10
2018-07-23T05:57:17.320Z,94.80
2018-07-23T05:59:47.128Z,94.80
2018-07-23T06:02:18.950Z,95.10
2018-07-23T06:04:48.160Z,95.10
2018-07-23T06:07:17.336Z,95.40
2018-07-23T06:09:46.784Z,95.60
2018-07-23T06:12:16.709Z,95.00
2018-07-23T06:14:46.140Z,94.30
2018-07-23T06:17:17.155Z,92.40
2018-07-23T06:19:46.570Z,90.90
2018-07-23T06:22:15.834Z,90.90
2018-07-23T06:24:45.093Z,90.20
2018-07-23T06:27:14.336Z,90.40
2018-07-23T06:29:44.601Z,91.30
2018-07-23T06:32:14.991Z,91.00
2018-07-23T06:34:44.169Z,90.90
2018-07-23T06:37:13.680Z,89.80
2018-07-23T06:39:43.038Z,89.40
2018-07-23T06:42:12.238Z,88.70
2018-07-23T06:44:42.984Z,88.90
2018-07-23T06:47:13.591Z,83.30
2018-07-23T06:49:42.857Z,84.40
2018-07-23T06:52:12.274Z,78.70
2018-07-23T06:54:41.503Z,78.60
2018-07-23T06:57:10.770Z,73.80
2018-07-23T06:59:39.963Z,74.70
2018-07-23T07:02:09.215Z,75.40
2018-07-23T07:04:38.406Z,77.70
2018-07-23T07:07:07.656Z,78.70
2018-07-23T07:09:36.882Z,79.80
2018-07-23T07:12:06.189Z,77.20
2018-07-23T07:14:35.398Z,77.00
2018-07-23T07:17:04.654Z,77.00
2018-07-23T07:19:34.928Z,80.10
2018-07-23T07:22:04.162Z,80.70
2018-07-23T07:24:33.489Z,82.40
2018-07-23T07:27:02.712Z,77.70
2018-07-23T07:29:31.919Z,78.50
2018-07-23T07:32:01.422Z,77.10
2018-07-23T07:34:30.687Z,73.80
2018-07-23T07:37:00.714Z,77.20
2018-07-23T07:39:29.975Z,76.20
2018-07-23T07:41:59.169Z,73.70
2018-07-23T07:44:28.490Z,75.30
2018-07-23T07:46:57.697Z,78.10
2018-07-23T07:49:26.936Z,74.00
2018-07-23T07:51:56.192Z,73.90
2018-07-23T07:54:25.470Z,72.70
2018-07-23T07:56:54.716Z,70.00
2018-07-23T07:59:24.138Z,71.50
2018-07-23T08:01:53.393Z,67.10
2018-07-23T08:04:22.603Z,68.50
2018-07-23T08:06:51.835Z,63.50
2018-07-23T08:09:21.126Z,61.50
2018-07-23T08:11:50.316Z,61.10
2018-07-23T08:14:19.490Z,61.10
2018-07-23T08:16:48.729Z,61.40
2018-07-23T08:19:17.918Z,62.40
2018-07-23T08:21:47.170Z,62.40
2018-07-23T08:24:16.377Z,63.00
2018-07-23T08:26:45.568Z,61.30
2018-07-23T08:29:14.846Z,61.00
2018-07-23T08:31:44.168Z,61.30
2018-07-23T08:34:13.258Z,65.60
2018-07-23T08:36:42.461Z,59.50
2018-07-23T08:39:12.813Z,57.60
2018-07-23T08:41:41.992Z,59.00
2018-07-23T08:44:11.239Z,58.10
2018-07-23T08:46:40.457Z,64.80
2018-07-23T08:49:15.249Z,64.00
2018-07-23T08:51:44.496Z,58.90
2018-07-23T08:54:13.719Z,61.30
2018-07-23T08:56:42.922Z,57.00
2018-07-23T08:59:12.190Z,56.90
2018-07-23T09:01:41.397Z,58.10
2018-07-23T09:04:10.622Z,54.40
2018-07-23T09:06:39.832Z,54.60
2018-07-23T09:09:10.490Z,55.30
2018-07-23T09:11:39.938Z,50.30
2018-07-23T09:14:09.293Z,51.30
2018-07-23T09:16:38.497Z,50.60
2018-07-23T09:19:07.937Z,47.80
2018-07-23T09:21:37.154Z,49.70
2018-07-23T09:24:06.367Z,47.10
2018-07-23T09:26:35.550Z,47.80
2018-07-23T09:29:04.914Z,48.60
2018-07-23T09:31:34.897Z,43.60
2018-07-23T09:34:04.155Z,43.80
2018-07-23T09:36:34.259Z,45.50
2018-07-23T09:39:03.783Z,49.40
2018-07-23T09:41:33.012Z,49.40
2018-07-23T09:44:02.261Z,49.30
2018-07-23T09:46:31.455Z,47.50
2018-07-23T09:49:00.762Z,48.40
2018-07-23T09:51:29.996Z,45.90
2018-07-23T09:53:59.238Z,46.80
2018-07-23T09:56:28.531Z,46.40
2018-07-23T09:58:58.243Z,48.40
2018-07-23T10:01:27.515Z,46.10
2018-07-23T10:03:56.699Z,46.90
2018-07-23T10:06:26.168Z,47.10
2018-07-23T10:08:55.666Z,50.80
2018-07-23T10:11:24.918Z,43.00
2018-07-23T10:13:54.420Z,49.30
2018-07-23T10:16:23.709Z,47.10
2018-07-23T10:18:52.948Z,48.50
2018-07-23T10:21:22.197Z,45.90
2018-07-23T10:23:51.419Z,45.90
2018-07-23T10:26:20.642Z,43.20
2018-07-23T10:28:49.945Z,44.50
2018-07-23T10:31:19.180Z,39.40
2018-07-23T10:33:48.366Z,43.40
2018-07-23T10:36:17.574Z,46.30
2018-07-23T10:38:48.003Z,46.50
2018-07-23T10:41:17.225Z,42.30
2018-07-23T10:43:46.416Z,46.10
2018-07-23T10:46:15.683Z,44.10
2018-07-23T10:48:44.942Z,43.80
2018-07-23T10:51:14.163Z,40.90
2018-07-23T10:53:44.084Z,41.60
2018-07-23T10:56:13.503Z,39.30
2018-07-23T10:58:42.806Z,41.60
2018-07-23T11:01:11.990Z,39.80
2018-07-23T11:03:41.343Z,37.70
2018-07-23T11:06:10.545Z,33.00
2018-07-23T11:08:39.919Z,36.20
2018-07-23T11:11:09.130Z,32.60
2018-07-23T11:13:38.507Z,34.90
2018-07-23T11:16:08.199Z,39.00
2018-07-23T11:18:37.477Z,38.70
2018-07-23T11:21:07.987Z,37.50
2018-07-23T11:23:37.659Z,38.90
2018-07-23T11:26:06.903Z,38.60
2018-07-23T11:28:36.316Z,36.10
2018-07-23T11:31:05.562Z,37.20
2018-07-23T11:33:35.027Z,34.30
2018-07-23T11:36:05.438Z,36.70
2018-07-23T11:38:34.769Z,34.50
2018-07-23T11:41:04.100Z,34.80
2018-07-23T11:43:33.341Z,32.50
2018-07-23T11:46:02.588Z,31.10
2018-07-23T11:48:31.917Z,31.10
2018-07-23T11:51:02.227Z,29.70
2018-07-23T11:53:31.731Z,30.90
2018-07-23T11:56:01.049Z,32.00
2018-07-23T11:58:30.256Z,29.40
2018-07-23T12:00:59.537Z,30.40
2018-07-23T12:03:28.772Z,30.00
2018-07-23T12:05:58.146Z,31.40
2018-07-23T12:08:27.362Z,30.00
2018-07-23T12:10:56.611Z,26.50
2018-07-23T12:13:25.918Z,26.80
2018-07-23T12:15:55.863Z,28.80
2018-07-23T12:18:25.072Z,28.10
2018-07-23T12:20:54.272Z,26.70
2018-07-23T12:23:24.031Z,26.60
2018-07-23T12:25:53.264Z,26.40
2018-07-23T12:28:22.527Z,26.50
2018-07-23T12:30:51.824Z,25.90
2018-07-23T12:33:21.102Z,25.90
2018-07-23T12:35:50.292Z,23.80
2018-07-23T12:38:20.082Z,26.10
2018-07-23T12:40:49.378Z,23.20
2018-07-23T12:43:19.372Z,23.30
2018-07-23T12:45:48.596Z,22.20
2018-07-23T12:48:17.910Z,21.20
2018-07-23T12:50:47.745Z,19.70
2018-07-23T12:53:17.811Z,21.80
2018-07-23T12:55:47.365Z,20.80
2018-07-23T12:58:16.548Z,21.70
2018-07-23T13:00:45.804Z,18.90
2018-07-23T13:03:15.016Z,18.20
2018-07-23T13:05:44.316Z,20.00
2018-07-23T13:08:13.600Z,21.40
2018-07-23T13:10:42.782Z,22.20
2018-07-23T13:13:12.630Z,19.70
2018-07-23T13:15:41.853Z,20.90
2018-07-23T13:18:11.113Z,20.20
2018-07-23T13:20:40.413Z,20.40
2018-07-23T13:23:09.682Z,19.80
2018-07-23T13:25:38.931Z,17.30
2018-07-23T13:28:08.210Z,17.30
2018-07-23T13:30:37.430Z,16.60
2018-07-23T13:33:06.734Z,16.70
2018-07-23T13:35:37.138Z,16.70
2018-07-23T13:38:06.500Z,16.50
2018-07-23T13:40:36.550Z,15.40
2018-07-23T13:43:05.862Z,12.60
2018-07-23T13:45:35.230Z,11.00
2018-07-23T13:48:04.603Z,10.40
2018-07-23T13:50:33.939Z,9.60
2018-07-23T13:53:03.203Z,11.80
2018-07-23T13:55:32.760Z,8.60
2018-07-23T13:58:02.103Z,7.30
2018-07-23T14:00:31.339Z,5.50
2018-07-23T14:03:00.601Z,4.10
2018-07-23T14:05:29.810Z,3.40
2018-07-23T14:07:59.492Z,1.80
2018-07-23T14:10:30.536Z,2.00
2018-07-23T14:13:00.771Z,2.10
2018-07-23T14:15:29.976Z,2.20
2018-07-23T14:17:59.174Z,1.60
2018-07-23T14:20:28.474Z,1.00
2018-07-23T14:22:58.610Z,2.00
2018-07-23T14:25:27.833Z,1.50
2018-07-23T14:27:57.049Z,1.60
2018-07-23T14:30:26.594Z,1.90
2018-07-23T14:32:56.259Z,2.20
2018-07-23T14:35:25.484Z,1.00
2018-07-23T14:37:54.698Z,1.00
2018-07-23T14:40:24.072Z,1.00
2018-07-23T14:42:53.890Z,1.00
2018-07-23T14:45:24.060Z,1.00
2018-07-23T14:47:53.260Z,1.00
2018-07-23T14:50:22.494Z,1.00
2018-07-23T14:52:51.706Z,1.00
2018-07-23T14:55:20.907Z,1.00
2018-07-23T14:57:50.191Z,1.00
2018-07-23T15:00:19.929Z,1.00
2018-07-23T15:02:49.206Z,1.00
2018-07-23T15:05:19.497Z,1.00
2018-07-23T15:07:49.373Z,1.00
2018-07-23T15:10:18.612Z,1.00
2018-07-23T15:12:47.817Z,1.00
2018-07-23T15:15:17.066Z,1.00
2018-07-23T15:17:46.836Z,1.00
2018-07-23T15:20:16.133Z,1.00
2018-07-23T15:22:45.663Z,1.00
2018-07-23T15:25:14.838Z,1.00
2018-07-23T15:27:44.043Z,1.00
2018-07-23T15:30:13.298Z,1.00
2018-07-23T15:32:42.527Z,1.00
2018-07-23T15:35:11.729Z,1.00
2018-07-23T15:37:40.948Z,1.00
2018-07-23T15:40:12.435Z,1.00
2018-07-23T15:42:41.902Z,1.00
2018-07-23T15:45:12.831Z,1.00
2018-07-23T15:47:42.027Z,1.00
2018-07-23T15:50:11.464Z,1.70
2018-07-23T15:52:40.759Z,1.40
2018-07-23T15:55:10.078Z,3.30
2018-07-23T15:57:39.558Z,5.10
2018-07-23T16:00:09.419Z,7.00
2018-07-23T16:02:39.005Z,6.60
2018-07-23T16:05:08.370Z,7.30
2018-07-23T16:07:37.589Z,9.30
2018-07-23T16:10:06.875Z,9.10
2018-07-23T16:12:36.124Z,6.50
2018-07-23T16:15:06.531Z,4.70
2018-07-23T16:17:35.734Z,4.40
2018-07-23T16:20:05.502Z,2.70
2018-07-23T16:22:35.162Z,2.00
2018-07-23T16:25:05.688Z,1.80
2018-07-23T16:27:34.990Z,1.00
2018-07-23T16:30:05.463Z,1.00
2018-07-23T16:32:34.831Z,1.00
2018-07-23T16:35:04.268Z,1.00
2018-07-23T16:37:33.493Z,1.00
2018-07-23T16:40:02.767Z,1.00
2018-07-23T16:42:32.000Z,1.00
2018-07-23T16:45:01.266Z,1.00
2018-07-23T16:47:31.034Z,1.00
2018-07-23T16:50:00.363Z,1.00
2018-07-23T16:52:29.879Z,1.00
2018-07-23T16:54:59.109Z,1.00
2018-07-23T16:57:28.395Z,1.00
2018-07-23T16:59:57.855Z,1.00
2018-07-23T17:02:28.484Z,1.00
2018-07-23T17:04:58.447Z,1.00
2018-07-23T17:07:27.689Z,1.60
2018-07-23T17:09:57.015Z,2.60
2018-07-23T17:12:27.146Z,3.40
2018-07-23T17:14:56.377Z,3.90
2018-07-23T17:17:27.896Z,4.50
2018-07-23T17:19:57.275Z,7.30
2018-07-23T17:22:27.345Z,8.00
2018-07-23T17:24:57.338Z,7.80
2018-07-23T17:27:26.575Z,11.40
2018-07-23T17:29:56.027Z,16.20
2018-07-23T17:32:27.197Z,21.40
2018-07-23T17:34:56.462Z,24.60
2018-07-23T17:37:25.749Z,27.40
2018-07-23T17:39:55.115Z,29.00
2018-07-23T17:42:24.927Z,30.40
2018-07-23T17:44:54.457Z,31.50
2018-07-23T17:47:26.715Z,33.80
2018-07-23T17:49:56.059Z,36.10
2018-07-23T17:52:25.257Z,36.70
2018-07-23T17:54:54.527Z,37.10
2018-07-23T17:57:23.879Z,37.50
2018-07-23T17:59:53.521Z,37.10
2018-07-23T18:02:25.214Z,38.90
2018-07-23T18:04:54.415Z,38.70
2018-07-23T18:07:24.705Z,37.60
2018-07-23T18:09:54.080Z,39.30
2018-07-23T18:12:23.260Z,42.00
2018-07-23T18:14:53.740Z,41.20
2018-07-23T18:17:24.980Z,39.80
2018-07-23T18:19:54.407Z,37.20
2018-07-23T18:22:23.630Z,37.00
2018-07-23T18:24:52.901Z,37.10
2018-07-23T18:27:22.106Z,38.10
2018-07-23T18:29:52.698Z,40.90
2018-07-23T18:32:23.833Z,43.80
2018-07-23T18:34:53.158Z,45.20
2018-07-23T18:37:22.723Z,47.30
2018-07-23T18:39:53.102Z,50.80
2018-07-23T18:42:22.283Z,53.40
2018-07-23T18:44:51.872Z,53.60
2018-07-23T18:47:23.028Z,52.90
2018-07-23T18:49:55.597Z,54.20
2018-07-23T18:52:25.922Z,57.00
2018-07-23T18:54:56.611Z,58.30
2018-07-23T18:57:25.852Z,57.40
2018-07-23T18:59:55.691Z,55.90
2018-07-23T19:04:54.770Z,58.90
2018-07-23T19:07:25.215Z,62.00
2018-07-23T19:09:54.699Z,62.20
2018-07-23T19:12:28.906Z,65.40
2018-07-23T19:14:58.388Z,61.90
2018-07-23T19:17:29.891Z,61.60
2018-07-23T19:20:01.295Z,63.60
2018-07-23T19:22:32.517Z,65.20
2018-07-23T19:25:02.435Z,68.60
2018-07-23T19:27:33.601Z,66.30
2018-07-23T19:30:07.467Z,66.60
2018-07-23T19:32:37.661Z,65.60
2018-07-23T19:35:07.168Z,66.00
2018-07-23T19:37:36.549Z,68.90
2018-07-23T19:40:06.029Z,71.20
2018-07-23T19:42:35.393Z,69.80
2018-07-23T19:45:05.162Z,70.70
2018-07-23T19:47:38.155Z,73.60
2018-07-23T19:50:08.432Z,74.10
2018-07-23T19:52:38.395Z,74.20
2018-07-23T19:55:08.533Z,74.00
2018-07-23T19:57:37.948Z,72.80
2018-07-23T20:00:07.870Z,72.10
2018-07-23T20:02:37.407Z,73.60
2018-07-23T20:05:06.816Z,76.00
2018-07-23T20:07:36.834Z,78.00
2018-07-23T20:10:06.869Z,82.00
2018-07-23T20:12:36.346Z,80.30
2018-07-23T20:15:05.870Z,79.90
2018-07-23T20:20:04.645Z,81.00
2018-07-23T20:22:34.857Z,81.00
2018-07-23T20:25:04.213Z,82.30
2018-07-23T20:27:35.409Z,83.00
2018-07-23T20:30:08.381Z,84.20
2018-07-23T20:32:37.658Z,85.50
2018-07-23T20:35:07.199Z,85.20
2018-07-23T20:37:36.425Z,82.80
2018-07-23T20:40:05.953Z,81.50
2018-07-23T20:42:35.159Z,81.40
2018-07-23T20:45:07.569Z,82.20
2018-07-23T20:47:36.882Z,81.30
2018-07-23T20:50:06.255Z,82.10
2018-07-23T20:52:36.369Z,83.90
2018-07-23T20:55:06.968Z,84.30
2018-07-23T20:57:36.208Z,85.60
2018-07-23T21:00:09.186Z,86.10
2018-07-23T21:02:38.647Z,84.70
2018-07-23T21:05:12.019Z,83.00
2018-07-23T21:07:41.275Z,83.40
2018-07-23T21:10:10.860Z,84.20
2018-07-23T21:12:40.934Z,85.60
2018-07-23T21:15:11.866Z,87.00
2018-07-23T21:17:41.120Z,86.20
2018-07-23T21:20:11.126Z,83.10
2018-07-23T21:22:40.427Z,83.50
2018-07-23T21:25:09.826Z,86.10
2018-07-23T21:27:43.187Z,87.90
2018-07-23T21:30:13.244Z,89.30
2018-07-23T21:32:42.796Z,86.60
2018-07-23T21:35:12.103Z,85.50
2018-07-23T21:37:41.765Z,87.80
2018-07-23T21:40:11.426Z,89.10
2018-07-23T21:42:45.375Z,86.30
2018-07-23T21:45:14.782Z,85.20
2018-07-23T21:50:15.453Z,87.80
2018-07-23T21:52:46.055Z,87.70
2018-07-23T21:55:15.309Z,90.30
2018-07-23T21:57:44.601Z,90.10
2018-07-23T22:00:15.714Z,88.70
2018-07-23T22:02:44.976Z,89.40
2018-07-23T22:05:14.245Z,90.50
2018-07-23T22:07:43.493Z,90.10
2018-07-23T22:10:12.851Z,90.70
2018-07-23T22:12:42.283Z,91.60
2018-07-23T22:15:11.953Z,92.20
2018-07-23T22:17:42.001Z,92.80
2018-07-23T22:20:11.382Z,94.30
2018-07-23T22:22:40.734Z,94.60
2018-07-23T22:25:10.473Z,94.80
2018-07-23T22:27:39.947Z,94.80
2018-07-23T22:30:09.307Z,94.40
2018-07-23T22:32:41.067Z,94.40
2018-07-23T22:35:11.840Z,93.50
2018-07-23T22:37:41.428Z,94.10
2018-07-23T22:40:11.608Z,93.30
2018-07-23T22:42:42.780Z,90.70
2018-07-23T22:45:12.058Z,90.10
2018-07-23T22:47:41.442Z,90.50
2018-07-23T22:50:11.759Z,88.50
2018-07-23T22:52:41.034Z,88.80
2018-07-23T22:55:10.612Z,90.10
2018-07-23T22:57:39.898Z,90.70
2018-07-23T23:00:09.487Z,91.10
2018-07-23T23:02:39.607Z,91.60
2018-07-23T23:05:09.480Z,93.30
2018-07-23T23:07:38.776Z,94.30
2018-07-23T23:10:08.073Z,95.40
2018-07-23T23:12:37.482Z,95.10
2018-07-23T23:15:06.930Z,95.40
2018-07-23T23:17:36.462Z,95.90
2018-07-23T23:20:06.503Z,96.80
2018-07-23T23:22:35.775Z,94.70
2018-07-23T23:25:05.087Z,92.80
2018-07-23T23:27:34.373Z,92.60
2018-07-23T23:30:03.738Z,93.50
2018-07-23T23:32:32.976Z,93.00
2018-07-23T23:35:02.180Z,94.50
2018-07-23T23:37:31.405Z,93.80
2018-07-23T23:40:02.554Z,95.00
